首页
METAR-TAF:

METAR-TAF

机场 :

Burwash, 育康省, 加拿大

纬度: 61-22N, 经度: 139-02W, 海拔: 807米

当前天气观测

该预报发布于1小时和8分钟前的07:00 UTC
风速11节,风向东南,在南转南东之间变化
温度 20°C
湿度 53%
气压 1016 hPa
能見度: 14.5公里
阴天层高于13000英尺

METAR: CYDB 220700Z AUTO 14011KT 090V160 9SM OVC130 20/10 A3001 RMK SLP171 DENSITY ALT 3700FT

时间: 01:08 (08:08 UTC)

预报

该预报发布于2小时和28分钟前的05:40 UTC
预报有效从22日的 06点(UTC)到 22日的 18点(UTC)
风速3节,风向多变
能見度: 10公里
散云层高于8000英尺
多云层高于10000英尺
短暂存在
从 22日的 06点(UTC)到 22日的 08点(UTC)
风速15节,风向多变,有时为25节阵风
能見度: 10公里
多云层高于8000英尺, 积雨云.
小阵雨, 附近有雷暴
从 22日的 0800点(UTC)
风速3节,风向多变
能見度: 10公里
散云层高于4000英尺
阴天层高于6000英尺
小阵雨
短暂存在
从 22日的 08点(UTC)到 22日的 18点(UTC)
能見度: 6.4公里
阴天层高于4000英尺
小阵雨, 轻雾

TAF: CYDB 220540Z 2206/2218 VRB03KT P6SM SCT080 BKN100 TEMPO 2206/2208 VRB15G25KT P6SM -SHRA VCTS BKN080CB FM220800 VRB03KT P6SM -SHRA SCT040 OVC060 TEMPO 2208/2218 4SM -SHRA BR OVC040 RMK FCST BASED ON AUTO OBS. NXT FCST BY 221200Z

超过4000个机场的气象观测和天气预报(METAR&TAF报告)。

可查询的气象台以黄色和红色小点在地图上表示。

将鼠标移到小点上方,可查看气象台名称。

然后点击查看天气观测和预报。

如需切换地图:点击带黑十字的绿色按钮放大地图;点击带横线的绿色按钮缩小地图;或者点击绿色箭头查看邻近地区的地图。


METAR-TAF: